sensor_id;sensor_type;location;lat;lon;timestamp;P1;durP1;ratioP1;P2;durP2;ratioP2
74213;SDS011;62576;55.694;37.494;2024-03-22T00:02:21;18.25;;;7.35;;
74213;SDS011;62576;55.694;37.494;2024-03-22T00:04:50;19.63;;;7.50;;
74213;SDS011;62576;55.694;37.494;2024-03-22T00:07:24;18.83;;;7.05;;
74213;SDS011;62576;55.694;37.494;2024-03-22T00:09:53;18.33;;;6.72;;
74213;SDS011;62576;55.694;37.494;2024-03-22T00:12:23;18.88;;;7.70;;
74213;SDS011;62576;55.694;37.494;2024-03-22T00:14:52;15.60;;;7.32;;
74213;SDS011;62576;55.694;37.494;2024-03-22T00:17:24;19.92;;;7.55;;
74213;SDS011;62576;55.694;37.494;2024-03-22T00:19:54;15.82;;;7.38;;
74213;SDS011;62576;55.694;37.494;2024-03-22T00:22:24;19.80;;;7.90;;
74213;SDS011;62576;55.694;37.494;2024-03-22T00:24:53;20.35;;;8.18;;
74213;SDS011;62576;55.694;37.494;2024-03-22T00:27:23;20.73;;;7.57;;
74213;SDS011;62576;55.694;37.494;2024-03-22T00:29:52;17.42;;;7.43;;
74213;SDS011;62576;55.694;37.494;2024-03-22T00:32:22;16.67;;;7.15;;
74213;SDS011;62576;55.694;37.494;2024-03-22T00:34:53;19.80;;;8.02;;
74213;SDS011;62576;55.694;37.494;2024-03-22T00:37:23;21.50;;;7.93;;
74213;SDS011;62576;55.694;37.494;2024-03-22T00:39:52;18.48;;;8.10;;
74213;SDS011;62576;55.694;37.494;2024-03-22T00:42:22;16.05;;;7.22;;
74213;SDS011;62576;55.694;37.494;2024-03-22T00:44:51;17.45;;;7.63;;
74213;SDS011;62576;55.694;37.494;2024-03-22T00:47:21;18.45;;;7.82;;
74213;SDS011;62576;55.694;37.494;2024-03-22T00:49:51;21.85;;;7.38;;
74213;SDS011;62576;55.694;37.494;2024-03-22T00:52:21;20.70;;;7.63;;
74213;SDS011;62576;55.694;37.494;2024-03-22T00:54:52;18.05;;;7.32;;
74213;SDS011;62576;55.694;37.494;2024-03-22T00:57:22;22.45;;;7.50;;
74213;SDS011;62576;55.694;37.494;2024-03-22T00:59:51;19.65;;;7.78;;
74213;SDS011;62576;55.694;37.494;2024-03-22T01:02:21;18.92;;;7.47;;
74213;SDS011;62576;55.694;37.494;2024-03-22T01:04:52;14.85;;;7.03;;
74213;SDS011;62576;55.694;37.494;2024-03-22T01:07:22;18.08;;;7.50;;
74213;SDS011;62576;55.694;37.494;2024-03-22T01:09:51;20.52;;;7.57;;
74213;SDS011;62576;55.694;37.494;2024-03-22T01:12:21;23.10;;;7.68;;
74213;SDS011;62576;55.694;37.494;2024-03-22T01:14:49;16.30;;;7.40;;
74213;SDS011;62576;55.694;37.494;2024-03-22T01:17:20;18.17;;;6.90;;
74213;SDS011;62576;55.694;37.494;2024-03-22T01:19:48;18.67;;;7.20;;
74213;SDS011;62576;55.694;37.494;2024-03-22T01:22:20;17.73;;;6.93;;
74213;SDS011;62576;55.694;37.494;2024-03-22T01:24:49;15.30;;;7.03;;
74213;SDS011;62576;55.694;37.494;2024-03-22T01:27:20;16.17;;;6.93;;
74213;SDS011;62576;55.694;37.494;2024-03-22T01:29:49;17.17;;;6.95;;
74213;SDS011;62576;55.694;37.494;2024-03-22T01:32:19;17.48;;;6.85;;
74213;SDS011;62576;55.694;37.494;2024-03-22T01:34:48;17.08;;;7.03;;
74213;SDS011;62576;55.694;37.494;2024-03-22T01:37:18;15.57;;;6.75;;
74213;SDS011;62576;55.694;37.494;2024-03-22T01:39:49;16.10;;;6.90;;
74213;SDS011;62576;55.694;37.494;2024-03-22T01:42:19;17.70;;;7.15;;
74213;SDS011;62576;55.694;37.494;2024-03-22T01:44:48;16.52;;;6.85;;
74213;SDS011;62576;55.694;37.494;2024-03-22T01:47:18;18.67;;;7.28;;
74213;SDS011;62576;55.694;37.494;2024-03-22T01:49:47;19.65;;;7.35;;
74213;SDS011;62576;55.694;37.494;2024-03-22T01:52:19;20.58;;;7.00;;
74213;SDS011;62576;55.694;37.494;2024-03-22T01:54:50;16.90;;;7.20;;
74213;SDS011;62576;55.694;37.494;2024-03-22T01:57:20;17.35;;;7.32;;
74213;SDS011;62576;55.694;37.494;2024-03-22T01:59:49;14.95;;;7.43;;
74213;SDS011;62576;55.694;37.494;2024-03-22T02:02:21;17.02;;;7.63;;
74213;SDS011;62576;55.694;37.494;2024-03-22T02:04:50;16.38;;;7.30;;
74213;SDS011;62576;55.694;37.494;2024-03-22T02:07:20;20.92;;;7.47;;
74213;SDS011;62576;55.694;37.494;2024-03-22T02:09:51;18.73;;;7.28;;
74213;SDS011;62576;55.694;37.494;2024-03-22T02:12:21;19.20;;;8.10;;
74213;SDS011;62576;55.694;37.494;2024-03-22T02:14:50;15.40;;;7.72;;
74213;SDS011;62576;55.694;37.494;2024-03-22T02:17:20;20.10;;;7.78;;
74213;SDS011;62576;55.694;37.494;2024-03-22T02:19:49;26.38;;;8.55;;
74213;SDS011;62576;55.694;37.494;2024-03-22T02:22:19;18.15;;;8.32;;
74213;SDS011;62576;55.694;37.494;2024-03-22T02:24:50;19.80;;;7.63;;
74213;SDS011;62576;55.694;37.494;2024-03-22T02:27:20;24.77;;;7.30;;
74213;SDS011;62576;55.694;37.494;2024-03-22T02:29:49;19.13;;;7.80;;
74213;SDS011;62576;55.694;37.494;2024-03-22T02:32:19;18.40;;;7.43;;
74213;SDS011;62576;55.694;37.494;2024-03-22T02:34:48;19.90;;;8.10;;
74213;SDS011;62576;55.694;37.494;2024-03-22T02:37:19;19.75;;;7.75;;
74213;SDS011;62576;55.694;37.494;2024-03-22T02:39:47;18.58;;;8.70;;
74213;SDS011;62576;55.694;37.494;2024-03-22T02:42:19;21.02;;;7.97;;
74213;SDS011;62576;55.694;37.494;2024-03-22T02:44:48;24.80;;;8.30;;
74213;SDS011;62576;55.694;37.494;2024-03-22T02:47:18;16.17;;;8.00;;
74213;SDS011;62576;55.694;37.494;2024-03-22T02:49:47;20.88;;;8.27;;
74213;SDS011;62576;55.694;37.494;2024-03-22T02:52:17;17.98;;;8.38;;
74213;SDS011;62576;55.694;37.494;2024-03-22T02:54:46;21.95;;;8.43;;
74213;SDS011;62576;55.694;37.494;2024-03-22T02:57:18;24.98;;;8.90;;
74213;SDS011;62576;55.694;37.494;2024-03-22T02:59:48;17.48;;;8.65;;
74213;SDS011;62576;55.694;37.494;2024-03-22T03:02:18;26.27;;;8.82;;
74213;SDS011;62576;55.694;37.494;2024-03-22T03:04:47;22.30;;;9.68;;
74213;SDS011;62576;55.694;37.494;2024-03-22T03:07:14;18.88;;;8.80;;
74213;SDS011;62576;55.694;37.494;2024-03-22T03:09:43;24.17;;;9.32;;
74213;SDS011;62576;55.694;37.494;2024-03-22T03:12:13;22.60;;;9.10;;
74213;SDS011;62576;55.694;37.494;2024-03-22T03:14:44;21.80;;;9.60;;
74213;SDS011;62576;55.694;37.494;2024-03-22T03:17:14;22.52;;;9.30;;
74213;SDS011;62576;55.694;37.494;2024-03-22T03:19:43;21.67;;;9.75;;
74213;SDS011;62576;55.694;37.494;2024-03-22T03:22:13;19.92;;;9.02;;
74213;SDS011;62576;55.694;37.494;2024-03-22T03:24:43;20.17;;;9.50;;
74213;SDS011;62576;55.694;37.494;2024-03-22T03:27:13;24.17;;;9.20;;
74213;SDS011;62576;55.694;37.494;2024-03-22T03:29:44;23.58;;;9.50;;
74213;SDS011;62576;55.694;37.494;2024-03-22T03:32:14;25.00;;;9.90;;
74213;SDS011;62576;55.694;37.494;2024-03-22T03:34:43;26.92;;;9.48;;
74213;SDS011;62576;55.694;37.494;2024-03-22T03:37:14;26.38;;;10.35;;
74213;SDS011;62576;55.694;37.494;2024-03-22T03:39:43;30.27;;;10.68;;
74213;SDS011;62576;55.694;37.494;2024-03-22T03:42:13;24.65;;;10.48;;
74213;SDS011;62576;55.694;37.494;2024-03-22T03:44:46;22.10;;;9.60;;
74213;SDS011;62576;55.694;37.494;2024-03-22T03:47:17;22.73;;;9.65;;
74213;SDS011;62576;55.694;37.494;2024-03-22T03:49:46;29.15;;;10.90;;
74213;SDS011;62576;55.694;37.494;2024-03-22T03:52:17;21.58;;;10.20;;
74213;SDS011;62576;55.694;37.494;2024-03-22T03:54:46;30.00;;;10.15;;
74213;SDS011;62576;55.694;37.494;2024-03-22T03:57:16;26.67;;;10.27;;
74213;SDS011;62576;55.694;37.494;2024-03-22T03:59:47;21.42;;;10.40;;
74213;SDS011;62576;55.694;37.494;2024-03-22T04:02:17;23.15;;;10.25;;
74213;SDS011;62576;55.694;37.494;2024-03-22T04:04:47;27.50;;;11.23;;
74213;SDS011;62576;55.694;37.494;2024-03-22T04:07:17;29.27;;;11.55;;
74213;SDS011;62576;55.694;37.494;2024-03-22T04:09:46;26.33;;;10.80;;
74213;SDS011;62576;55.694;37.494;2024-03-22T04:12:16;30.67;;;10.75;;
74213;SDS011;62576;55.694;37.494;2024-03-22T04:14:46;28.60;;;11.38;;
74213;SDS011;62576;55.694;37.494;2024-03-22T04:17:16;28.02;;;11.40;;
74213;SDS011;62576;55.694;37.494;2024-03-22T04:19:45;27.65;;;11.38;;
74213;SDS011;62576;55.694;37.494;2024-03-22T04:22:18;24.95;;;11.32;;
74213;SDS011;62576;55.694;37.494;2024-03-22T04:24:48;24.27;;;11.30;;
74213;SDS011;62576;55.694;37.494;2024-03-22T04:27:18;29.45;;;11.75;;
74213;SDS011;62576;55.694;37.494;2024-03-22T04:29:49;27.20;;;11.25;;
74213;SDS011;62576;55.694;37.494;2024-03-22T04:32:19;29.70;;;11.50;;
74213;SDS011;62576;55.694;37.494;2024-03-22T04:34:49;25.35;;;11.05;;
74213;SDS011;62576;55.694;37.494;2024-03-22T04:37:20;30.45;;;12.27;;
74213;SDS011;62576;55.694;37.494;2024-03-22T04:39:50;26.20;;;11.68;;
74213;SDS011;62576;55.694;37.494;2024-03-22T04:42:21;28.13;;;12.45;;
74213;SDS011;62576;55.694;37.494;2024-03-22T04:44:52;25.20;;;12.13;;
74213;SDS011;62576;55.694;37.494;2024-03-22T04:47:21;29.75;;;12.13;;
74213;SDS011;62576;55.694;37.494;2024-03-22T04:49:52;28.05;;;12.35;;
74213;SDS011;62576;55.694;37.494;2024-03-22T04:52:21;27.52;;;11.88;;
74213;SDS011;62576;55.694;37.494;2024-03-22T04:54:52;28.73;;;12.05;;
74213;SDS011;62576;55.694;37.494;2024-03-22T04:57:21;26.25;;;12.02;;
74213;SDS011;62576;55.694;37.494;2024-03-22T04:59:53;30.05;;;12.52;;
74213;SDS011;62576;55.694;37.494;2024-03-22T05:02:22;26.15;;;11.95;;
74213;SDS011;62576;55.694;37.494;2024-03-22T05:04:49;27.13;;;12.15;;
74213;SDS011;62576;55.694;37.494;2024-03-22T05:07:19;29.55;;;12.23;;
74213;SDS011;62576;55.694;37.494;2024-03-22T05:09:49;30.88;;;12.45;;
74213;SDS011;62576;55.694;37.494;2024-03-22T05:12:18;26.50;;;11.75;;
74213;SDS011;62576;55.694;37.494;2024-03-22T05:15:00;31.88;;;13.77;;
74213;SDS011;62576;55.694;37.494;2024-03-22T05:17:32;36.45;;;13.38;;
74213;SDS011;62576;55.694;37.494;2024-03-22T05:20:02;29.65;;;12.95;;
74213;SDS011;62576;55.694;37.494;2024-03-22T05:22:31;31.77;;;13.65;;
74213;SDS011;62576;55.694;37.494;2024-03-22T05:25:02;34.80;;;13.00;;
74213;SDS011;62576;55.694;37.494;2024-03-22T05:27:32;32.67;;;13.05;;
74213;SDS011;62576;55.694;37.494;2024-03-22T05:30:04;29.83;;;13.73;;
74213;SDS011;62576;55.694;37.494;2024-03-22T05:32:34;28.88;;;12.95;;
74213;SDS011;62576;55.694;37.494;2024-03-22T05:35:05;38.08;;;14.00;;
74213;SDS011;62576;55.694;37.494;2024-03-22T05:37:35;31.33;;;13.48;;
74213;SDS011;62576;55.694;37.494;2024-03-22T05:40:06;30.88;;;13.40;;
74213;SDS011;62576;55.694;37.494;2024-03-22T05:42:37;32.38;;;14.00;;
74213;SDS011;62576;55.694;37.494;2024-03-22T05:45:10;26.77;;;13.07;;
74213;SDS011;62576;55.694;37.494;2024-03-22T05:47:39;32.92;;;13.50;;
74213;SDS011;62576;55.694;37.494;2024-03-22T05:50:09;27.60;;;12.88;;
74213;SDS011;62576;55.694;37.494;2024-03-22T05:52:38;39.25;;;13.77;;
74213;SDS011;62576;55.694;37.494;2024-03-22T05:55:09;37.00;;;14.65;;
74213;SDS011;62576;55.694;37.494;2024-03-22T05:57:38;34.40;;;14.27;;
74213;SDS011;62576;55.694;37.494;2024-03-22T06:00:22;32.25;;;13.55;;
74213;SDS011;62576;55.694;37.494;2024-03-22T06:02:51;30.90;;;14.10;;
74213;SDS011;62576;55.694;37.494;2024-03-22T06:05:21;30.98;;;13.85;;
74213;SDS011;62576;55.694;37.494;2024-03-22T06:07:50;32.05;;;13.38;;
74213;SDS011;62576;55.694;37.494;2024-03-22T06:10:21;29.00;;;14.10;;
74213;SDS011;62576;55.694;37.494;2024-03-22T06:12:50;34.60;;;13.40;;
74213;SDS011;62576;55.694;37.494;2024-03-22T06:15:22;28.65;;;13.90;;
74213;SDS011;62576;55.694;37.494;2024-03-22T06:17:51;30.38;;;14.68;;
74213;SDS011;62576;55.694;37.494;2024-03-22T06:20:25;41.40;;;14.15;;
74213;SDS011;62576;55.694;37.494;2024-03-22T06:22:54;33.97;;;13.68;;
74213;SDS011;62576;55.694;37.494;2024-03-22T06:25:24;32.13;;;13.52;;
74213;SDS011;62576;55.694;37.494;2024-03-22T06:27:53;30.92;;;13.23;;
74213;SDS011;62576;55.694;37.494;2024-03-22T06:30:26;36.25;;;13.82;;
74213;SDS011;62576;55.694;37.494;2024-03-22T06:32:55;30.40;;;13.18;;
74213;SDS011;62576;55.694;37.494;2024-03-22T06:35:26;30.45;;;13.20;;
74213;SDS011;62576;55.694;37.494;2024-03-22T06:37:52;30.83;;;12.98;;
74213;SDS011;62576;55.694;37.494;2024-03-22T06:40:23;33.95;;;14.07;;
74213;SDS011;62576;55.694;37.494;2024-03-22T06:42:52;27.70;;;13.80;;
74213;SDS011;62576;55.694;37.494;2024-03-22T06:45:23;35.50;;;14.10;;
74213;SDS011;62576;55.694;37.494;2024-03-22T06:48:12;33.88;;;14.35;;
74213;SDS011;62576;55.694;37.494;2024-03-22T06:50:43;34.78;;;13.23;;
74213;SDS011;62576;55.694;37.494;2024-03-22T06:53:13;30.95;;;13.48;;
74213;SDS011;62576;55.694;37.494;2024-03-22T06:55:43;35.10;;;13.13;;
74213;SDS011;62576;55.694;37.494;2024-03-22T06:58:13;31.30;;;13.05;;
74213;SDS011;62576;55.694;37.494;2024-03-22T07:00:44;30.67;;;13.77;;
74213;SDS011;62576;55.694;37.494;2024-03-22T07:03:14;30.08;;;12.73;;
74213;SDS011;62576;55.694;37.494;2024-03-22T07:05:46;27.38;;;12.68;;
74213;SDS011;62576;55.694;37.494;2024-03-22T07:08:15;28.65;;;13.77;;
74213;SDS011;62576;55.694;37.494;2024-03-22T07:10:46;28.75;;;12.68;;
74213;SDS011;62576;55.694;37.494;2024-03-22T07:13:15;31.25;;;12.32;;
74213;SDS011;62576;55.694;37.494;2024-03-22T07:15:45;30.95;;;12.15;;
74213;SDS011;62576;55.694;37.494;2024-03-22T07:18:18;39.35;;;12.98;;
74213;SDS011;62576;55.694;37.494;2024-03-22T07:20:48;28.08;;;11.95;;
74213;SDS011;62576;55.694;37.494;2024-03-22T07:23:17;29.52;;;12.88;;
74213;SDS011;62576;55.694;37.494;2024-03-22T07:25:48;28.70;;;13.00;;
74213;SDS011;62576;55.694;37.494;2024-03-22T07:28:17;31.13;;;12.32;;
74213;SDS011;62576;55.694;37.494;2024-03-22T07:30:47;23.63;;;11.45;;
74213;SDS011;62576;55.694;37.494;2024-03-22T07:33:18;26.67;;;10.77;;
74213;SDS011;62576;55.694;37.494;2024-03-22T07:35:48;24.20;;;11.27;;
74213;SDS011;62576;55.694;37.494;2024-03-22T07:38:18;28.42;;;12.13;;
74213;SDS011;62576;55.694;37.494;2024-03-22T07:40:48;28.00;;;11.65;;
74213;SDS011;62576;55.694;37.494;2024-03-22T07:43:17;30.42;;;12.50;;
74213;SDS011;62576;55.694;37.494;2024-03-22T07:45:47;28.80;;;12.93;;
74213;SDS011;62576;55.694;37.494;2024-03-22T07:48:18;34.47;;;11.95;;
74213;SDS011;62576;55.694;37.494;2024-03-22T07:50:55;26.55;;;11.77;;
74213;SDS011;62576;55.694;37.494;2024-03-22T07:53:25;25.60;;;12.10;;
74213;SDS011;62576;55.694;37.494;2024-03-22T07:55:56;25.20;;;11.75;;
74213;SDS011;62576;55.694;37.494;2024-03-22T07:58:25;37.55;;;11.70;;
74213;SDS011;62576;55.694;37.494;2024-03-22T08:00:55;30.65;;;10.80;;
74213;SDS011;62576;55.694;37.494;2024-03-22T08:03:26;27.65;;;12.07;;
74213;SDS011;62576;55.694;37.494;2024-03-22T08:05:57;32.80;;;11.55;;
74213;SDS011;62576;55.694;37.494;2024-03-22T08:08:27;26.50;;;11.63;;
74213;SDS011;62576;55.694;37.494;2024-03-22T08:10:59;21.02;;;10.95;;
74213;SDS011;62576;55.694;37.494;2024-03-22T08:13:28;23.17;;;10.13;;
74213;SDS011;62576;55.694;37.494;2024-03-22T08:15:59;21.10;;;9.75;;
74213;SDS011;62576;55.694;37.494;2024-03-22T08:18:30;27.52;;;9.77;;
74213;SDS011;62576;55.694;37.494;2024-03-22T08:21:21;18.70;;;9.57;;
74213;SDS011;62576;55.694;37.494;2024-03-22T08:23:51;22.23;;;10.40;;
74213;SDS011;62576;55.694;37.494;2024-03-22T08:26:21;23.73;;;9.38;;
74213;SDS011;62576;55.694;37.494;2024-03-22T08:28:51;20.33;;;9.10;;
74213;SDS011;62576;55.694;37.494;2024-03-22T08:31:21;29.63;;;10.98;;
74213;SDS011;62576;55.694;37.494;2024-03-22T08:33:55;20.88;;;9.93;;
74213;SDS011;62576;55.694;37.494;2024-03-22T08:36:22;23.83;;;9.65;;
74213;SDS011;62576;55.694;37.494;2024-03-22T08:38:52;21.50;;;9.00;;
74213;SDS011;62576;55.694;37.494;2024-03-22T08:41:22;23.48;;;9.27;;
74213;SDS011;62576;55.694;37.494;2024-03-22T08:43:51;20.88;;;9.25;;
74213;SDS011;62576;55.694;37.494;2024-03-22T08:46:22;25.25;;;10.50;;
74213;SDS011;62576;55.694;37.494;2024-03-22T08:48:54;15.27;;;7.82;;
74213;SDS011;62576;55.694;37.494;2024-03-22T08:51:25;21.65;;;8.70;;
74213;SDS011;62576;55.694;37.494;2024-03-22T08:53:55;27.17;;;10.55;;
74213;SDS011;62576;55.694;37.494;2024-03-22T08:56:25;21.85;;;10.38;;
74213;SDS011;62576;55.694;37.494;2024-03-22T08:58:56;21.05;;;9.90;;
74213;SDS011;62576;55.694;37.494;2024-03-22T09:01:26;28.45;;;10.00;;
74213;SDS011;62576;55.694;37.494;2024-03-22T09:03:57;21.77;;;9.48;;
74213;SDS011;62576;55.694;37.494;2024-03-22T09:06:27;23.48;;;9.15;;
74213;SDS011;62576;55.694;37.494;2024-03-22T09:08:57;19.63;;;8.13;;
74213;SDS011;62576;55.694;37.494;2024-03-22T09:11:29;21.67;;;9.45;;
74213;SDS011;62576;55.694;37.494;2024-03-22T09:14:00;19.65;;;8.57;;
74213;SDS011;62576;55.694;37.494;2024-03-22T09:16:30;20.55;;;8.38;;
74213;SDS011;62576;55.694;37.494;2024-03-22T09:19:01;21.20;;;9.07;;
74213;SDS011;62576;55.694;37.494;2024-03-22T09:21:32;21.95;;;9.77;;
74213;SDS011;62576;55.694;37.494;2024-03-22T09:24:01;20.83;;;8.68;;
74213;SDS011;62576;55.694;37.494;2024-03-22T09:26:32;21.95;;;8.55;;
74213;SDS011;62576;55.694;37.494;2024-03-22T09:29:02;19.08;;;9.15;;
74213;SDS011;62576;55.694;37.494;2024-03-22T09:31:33;20.13;;;9.52;;
74213;SDS011;62576;55.694;37.494;2024-03-22T09:34:05;25.00;;;9.55;;
74213;SDS011;62576;55.694;37.494;2024-03-22T09:36:33;22.60;;;9.73;;
74213;SDS011;62576;55.694;37.494;2024-03-22T09:39:05;20.92;;;9.52;;
74213;SDS011;62576;55.694;37.494;2024-03-22T09:41:37;22.40;;;9.73;;
74213;SDS011;62576;55.694;37.494;2024-03-22T09:44:12;26.25;;;10.07;;
74213;SDS011;62576;55.694;37.494;2024-03-22T09:46:43;28.37;;;9.67;;
74213;SDS011;62576;55.694;37.494;2024-03-22T09:49:16;19.52;;;9.00;;
74213;SDS011;62576;55.694;37.494;2024-03-22T09:51:51;20.17;;;9.15;;
74213;SDS011;62576;55.694;37.494;2024-03-22T09:54:22;26.88;;;9.93;;
74213;SDS011;62576;55.694;37.494;2024-03-22T09:56:54;17.73;;;9.10;;
74213;SDS011;62576;55.694;37.494;2024-03-22T09:59:26;23.17;;;9.55;;
74213;SDS011;62576;55.694;37.494;2024-03-22T10:01:57;20.80;;;9.10;;
74213;SDS011;62576;55.694;37.494;2024-03-22T10:04:30;18.38;;;9.35;;
74213;SDS011;62576;55.694;37.494;2024-03-22T10:07:00;21.15;;;9.77;;
74213;SDS011;62576;55.694;37.494;2024-03-22T10:09:30;17.92;;;9.57;;
74213;SDS011;62576;55.694;37.494;2024-03-22T10:12:01;23.83;;;8.90;;
74213;SDS011;62576;55.694;37.494;2024-03-22T10:14:32;20.60;;;8.73;;
74213;SDS011;62576;55.694;37.494;2024-03-22T10:17:03;21.05;;;9.27;;
74213;SDS011;62576;55.694;37.494;2024-03-22T10:19:34;19.42;;;9.10;;
74213;SDS011;62576;55.694;37.494;2024-03-22T10:24:35;18.00;;;8.27;;
74213;SDS011;62576;55.694;37.494;2024-03-22T10:27:05;18.08;;;8.02;;
74213;SDS011;62576;55.694;37.494;2024-03-22T10:29:45;14.98;;;7.90;;
74213;SDS011;62576;55.694;37.494;2024-03-22T10:32:28;16.98;;;7.72;;
74213;SDS011;62576;55.694;37.494;2024-03-22T10:37:47;13.70;;;7.47;;
74213;SDS011;62576;55.694;37.494;2024-03-22T10:40:19;13.55;;;6.75;;
74213;SDS011;62576;55.694;37.494;2024-03-22T10:42:51;19.75;;;7.57;;
74213;SDS011;62576;55.694;37.494;2024-03-22T10:45:20;11.65;;;6.63;;
74213;SDS011;62576;55.694;37.494;2024-03-22T10:47:53;19.80;;;7.15;;
74213;SDS011;62576;55.694;37.494;2024-03-22T10:50:26;15.73;;;7.13;;
74213;SDS011;62576;55.694;37.494;2024-03-22T10:52:58;14.13;;;6.63;;
74213;SDS011;62576;55.694;37.494;2024-03-22T10:55:32;14.20;;;6.68;;
74213;SDS011;62576;55.694;37.494;2024-03-22T10:58:04;23.55;;;7.45;;
74213;SDS011;62576;55.694;37.494;2024-03-22T11:00:35;17.40;;;6.90;;
74213;SDS011;62576;55.694;37.494;2024-03-22T11:03:07;12.27;;;7.20;;
74213;SDS011;62576;55.694;37.494;2024-03-22T11:05:46;15.55;;;6.70;;
74213;SDS011;62576;55.694;37.494;2024-03-22T11:08:23;12.35;;;7.00;;
74213;SDS011;62576;55.694;37.494;2024-03-22T11:10:54;14.77;;;7.00;;
74213;SDS011;62576;55.694;37.494;2024-03-22T11:15:58;16.65;;;7.40;;
74213;SDS011;62576;55.694;37.494;2024-03-22T11:18:29;22.20;;;7.75;;
74213;SDS011;62576;55.694;37.494;2024-03-22T11:21:00;14.38;;;7.15;;
74213;SDS011;62576;55.694;37.494;2024-03-22T11:23:31;16.20;;;7.70;;
74213;SDS011;62576;55.694;37.494;2024-03-22T11:26:02;17.23;;;8.10;;
74213;SDS011;62576;55.694;37.494;2024-03-22T11:28:31;15.52;;;7.95;;
74213;SDS011;62576;55.694;37.494;2024-03-22T11:31:02;15.38;;;7.65;;
74213;SDS011;62576;55.694;37.494;2024-03-22T11:33:32;15.48;;;8.15;;
74213;SDS011;62576;55.694;37.494;2024-03-22T11:36:01;15.45;;;8.45;;
74213;SDS011;62576;55.694;37.494;2024-03-22T11:38:32;17.85;;;8.82;;
74213;SDS011;62576;55.694;37.494;2024-03-22T11:41:03;16.42;;;8.55;;
74213;SDS011;62576;55.694;37.494;2024-03-22T11:43:33;15.60;;;8.02;;
74213;SDS011;62576;55.694;37.494;2024-03-22T11:46:08;14.57;;;8.27;;
74213;SDS011;62576;55.694;37.494;2024-03-22T11:48:42;21.08;;;8.18;;
74213;SDS011;62576;55.694;37.494;2024-03-22T11:51:14;15.07;;;8.30;;
74213;SDS011;62576;55.694;37.494;2024-03-22T11:56:49;13.57;;;7.28;;
74213;SDS011;62576;55.694;37.494;2024-03-22T11:59:23;17.45;;;7.43;;
74213;SDS011;62576;55.694;37.494;2024-03-22T12:01:54;14.30;;;7.38;;
74213;SDS011;62576;55.694;37.494;2024-03-22T12:04:24;16.27;;;7.90;;
74213;SDS011;62576;55.694;37.494;2024-03-22T12:06:56;16.00;;;7.43;;
74213;SDS011;62576;55.694;37.494;2024-03-22T12:09:25;16.13;;;7.35;;
74213;SDS011;62576;55.694;37.494;2024-03-22T12:11:56;14.98;;;8.10;;
74213;SDS011;62576;55.694;37.494;2024-03-22T12:14:26;15.32;;;7.20;;
74213;SDS011;62576;55.694;37.494;2024-03-22T12:16:57;13.38;;;6.85;;
74213;SDS011;62576;55.694;37.494;2024-03-22T12:19:29;14.07;;;6.88;;
74213;SDS011;62576;55.694;37.494;2024-03-22T12:22:01;12.02;;;7.07;;
74213;SDS011;62576;55.694;37.494;2024-03-22T12:24:31;21.20;;;6.93;;
74213;SDS011;62576;55.694;37.494;2024-03-22T12:27:02;15.98;;;6.80;;
74213;SDS011;62576;55.694;37.494;2024-03-22T12:29:32;12.48;;;6.57;;
74213;SDS011;62576;55.694;37.494;2024-03-22T12:32:05;12.77;;;6.47;;
74213;SDS011;62576;55.694;37.494;2024-03-22T12:34:35;10.90;;;6.30;;
74213;SDS011;62576;55.694;37.494;2024-03-22T12:37:07;12.02;;;6.60;;
74213;SDS011;62576;55.694;37.494;2024-03-22T12:39:39;12.93;;;6.35;;
74213;SDS011;62576;55.694;37.494;2024-03-22T12:42:23;13.85;;;6.93;;
74213;SDS011;62576;55.694;37.494;2024-03-22T12:44:59;10.05;;;6.40;;
74213;SDS011;62576;55.694;37.494;2024-03-22T12:47:29;12.95;;;6.45;;
74213;SDS011;62576;55.694;37.494;2024-03-22T12:49:58;16.73;;;6.78;;
74213;SDS011;62576;55.694;37.494;2024-03-22T12:52:30;13.73;;;6.45;;
74213;SDS011;62576;55.694;37.494;2024-03-22T12:55:00;20.50;;;6.18;;
74213;SDS011;62576;55.694;37.494;2024-03-22T12:57:30;11.85;;;6.13;;
74213;SDS011;62576;55.694;37.494;2024-03-22T12:59:59;14.63;;;6.13;;
74213;SDS011;62576;55.694;37.494;2024-03-22T13:02:31;13.77;;;6.03;;
74213;SDS011;62576;55.694;37.494;2024-03-22T13:05:01;18.45;;;6.38;;
74213;SDS011;62576;55.694;37.494;2024-03-22T13:07:34;13.18;;;6.03;;
74213;SDS011;62576;55.694;37.494;2024-03-22T13:10:08;13.43;;;6.22;;
74213;SDS011;62576;55.694;37.494;2024-03-22T13:12:41;16.17;;;6.00;;
74213;SDS011;62576;55.694;37.494;2024-03-22T13:15:10;11.68;;;5.43;;
74213;SDS011;62576;55.694;37.494;2024-03-22T13:17:41;13.07;;;5.75;;
74213;SDS011;62576;55.694;37.494;2024-03-22T13:20:10;11.07;;;5.13;;
74213;SDS011;62576;55.694;37.494;2024-03-22T13:22:45;15.30;;;5.10;;
74213;SDS011;62576;55.694;37.494;2024-03-22T13:25:14;15.30;;;5.30;;
74213;SDS011;62576;55.694;37.494;2024-03-22T13:27:45;11.98;;;5.25;;
74213;SDS011;62576;55.694;37.494;2024-03-22T13:30:14;13.90;;;5.28;;
74213;SDS011;62576;55.694;37.494;2024-03-22T13:32:46;13.65;;;5.22;;
74213;SDS011;62576;55.694;37.494;2024-03-22T13:35:16;15.48;;;5.22;;
74213;SDS011;62576;55.694;37.494;2024-03-22T13:37:50;14.88;;;5.82;;
74213;SDS011;62576;55.694;37.494;2024-03-22T13:40:19;12.77;;;5.25;;
74213;SDS011;62576;55.694;37.494;2024-03-22T13:42:52;14.20;;;5.07;;
74213;SDS011;62576;55.694;37.494;2024-03-22T13:45:22;9.48;;;5.00;;
74213;SDS011;62576;55.694;37.494;2024-03-22T13:47:52;11.88;;;5.07;;
74213;SDS011;62576;55.694;37.494;2024-03-22T13:50:21;13.70;;;5.05;;
74213;SDS011;62576;55.694;37.494;2024-03-22T13:52:53;13.52;;;5.25;;
74213;SDS011;62576;55.694;37.494;2024-03-22T13:55:23;18.08;;;5.55;;
74213;SDS011;62576;55.694;37.494;2024-03-22T13:57:53;14.40;;;5.43;;
74213;SDS011;62576;55.694;37.494;2024-03-22T14:00:23;12.88;;;5.38;;
74213;SDS011;62576;55.694;37.494;2024-03-22T14:02:54;15.05;;;5.57;;
74213;SDS011;62576;55.694;37.494;2024-03-22T14:05:24;13.20;;;5.53;;
74213;SDS011;62576;55.694;37.494;2024-03-22T14:08:00;18.75;;;5.70;;
74213;SDS011;62576;55.694;37.494;2024-03-22T14:10:32;14.10;;;5.43;;
74213;SDS011;62576;55.694;37.494;2024-03-22T14:13:03;15.65;;;6.03;;
74213;SDS011;62576;55.694;37.494;2024-03-22T14:15:36;13.93;;;5.72;;
74213;SDS011;62576;55.694;37.494;2024-03-22T14:18:05;14.02;;;5.55;;
74213;SDS011;62576;55.694;37.494;2024-03-22T14:20:37;13.10;;;5.88;;
74213;SDS011;62576;55.694;37.494;2024-03-22T14:23:08;14.85;;;5.50;;
74213;SDS011;62576;55.694;37.494;2024-03-22T14:25:38;14.60;;;5.60;;
74213;SDS011;62576;55.694;37.494;2024-03-22T14:28:08;14.40;;;5.75;;
74213;SDS011;62576;55.694;37.494;2024-03-22T14:30:38;13.15;;;5.60;;
74213;SDS011;62576;55.694;37.494;2024-03-22T14:33:04;13.90;;;5.82;;
74213;SDS011;62576;55.694;37.494;2024-03-22T14:35:34;14.05;;;5.40;;
74213;SDS011;62576;55.694;37.494;2024-03-22T14:38:04;15.00;;;5.78;;
74213;SDS011;62576;55.694;37.494;2024-03-22T14:40:36;14.52;;;6.18;;
74213;SDS011;62576;55.694;37.494;2024-03-22T14:45:39;16.83;;;6.10;;
74213;SDS011;62576;55.694;37.494;2024-03-22T14:48:09;12.60;;;5.55;;
74213;SDS011;62576;55.694;37.494;2024-03-22T14:50:43;16.95;;;6.18;;
74213;SDS011;62576;55.694;37.494;2024-03-22T14:53:12;20.95;;;6.38;;